Time;durP1;ratioP1;P1;durP2;ratioP2;P2;SDS_P1;SDS_P2;PMS_P1;PMS_P2;Temp;Humidity;BMP_temperature;BMP_pressure;BME280_temperature;BME280_humidity;BME280_pressure;Samples;Min_cycle;Max_cycle;Signal;HPM_P1;HPM_P2
2022/05/09 00:10:21;;;;;;;12.50;4.70;;;;;;;7.86;72.27;102693.09;5411062;24;20064;-92
2022/05/09 00:12:47;;;;;;;14.93;5.03;;;;;;;7.83;72.47;102689.75;4844686;29;20029;-92
2022/05/09 00:15:14;;;;;;;12.57;3.95;;;;;;;8.14;72.68;102739.66;4861199;29;20615;-79
2022/05/09 00:17:39;;;;;;;12.95;4.65;;;;;;;8.12;72.75;102735.44;4861282;29;20041;-88
2022/05/09 00:20:06;;;;;;;12.70;4.18;;;;;;;7.71;73.09;102672.88;4861016;29;20033;-87
2022/05/09 00:22:41;;;;;;;12.68;4.53;;;;;;;8.07;72.88;102737.28;4861059;29;20037;-79
2022/05/09 00:25:07;;;;;;;14.52;4.40;;;;;;;8.00;73.74;102729.69;4861149;29;20029;-90
2022/05/09 00:27:32;;;;;;;15.15;5.22;;;;;;;7.65;73.82;102689.28;4860965;29;20030;-91
2022/05/09 00:29:58;;;;;;;13.70;4.10;;;;;;;7.49;74.03;102664.78;4861153;29;20036;-83
2022/05/09 00:32:24;;;;;;;13.45;4.55;;;;;;;7.58;74.31;102686.88;4844268;29;20057;-79
2022/05/09 00:34:49;;;;;;;17.33;5.63;;;;;;;7.79;74.44;102737.88;4860743;29;20048;-79
2022/05/09 00:37:14;;;;;;;10.57;4.60;;;;;;;7.75;74.58;102741.34;4860492;29;20033;-78
2022/05/09 00:39:40;;;;;;;10.70;4.53;;;;;;;7.55;74.46;102703.19;4860775;29;20025;-78
2022/05/09 00:42:10;;;;;;;12.45;4.38;;;;;;;7.72;74.92;102731.13;4843870;29;20038;-78
2022/05/09 00:44:38;;;;;;;12.13;4.72;;;;;;;7.50;75.42;102705.03;4844264;29;20029;-78
2022/05/09 00:47:03;;;;;;;18.88;4.45;;;;;;;7.64;75.10;102728.72;4829162;29;20077;-81
2022/05/09 00:49:40;;;;;;;12.38;4.28;;;;;;;7.69;75.29;102734.63;4860738;29;20064;-81
2022/05/09 00:52:16;;;;;;;10.48;4.28;;;;;;;7.61;75.74;102736.50;4860496;29;20033;-77
2022/05/09 00:54:48;;;;;;;17.88;5.57;;;;;;;7.47;76.16;102725.63;4860858;29;20027;-81
2022/05/09 00:57:23;;;;;;;14.70;4.72;;;;;;;7.53;76.06;102729.81;4860629;29;20030;-78
2022/05/09 00:59:52;;;;;;;10.07;4.40;;;;;;;7.47;76.18;102726.50;4861068;29;20071;-78
2022/05/09 01:02:19;;;;;;;9.52;4.30;;;;;;;7.25;76.96;102711.50;4860759;29;20029;-78
2022/05/09 01:04:57;;;;;;;11.93;4.57;;;;;;;7.39;76.79;102723.22;4860685;29;20029;-78
2022/05/09 01:07:24;;;;;;;15.77;4.78;;;;;;;7.13;77.15;102704.88;4860281;29;20113;-81
2022/05/09 01:09:49;;;;;;;13.25;4.90;;;;;;;7.21;77.46;102721.00;4860273;29;20069;-81
2022/05/09 01:13:13;;;;;;;17.85;5.05;;;;;;;6.63;77.38;102621.91;5337278;24;20087;-79
2022/05/09 01:34:09;;;;;;;15.25;6.43;;;;;;;6.74;79.05;102681.59;5492363;24;20062;-87
2022/05/09 01:36:35;;;;;;;14.93;5.03;;;;;;;6.81;79.47;102690.91;4864930;29;20538;-81
2022/05/09 01:39:04;;;;;;;16.63;5.18;;;;;;;6.89;79.30;102704.47;4862141;29;20061;-82
2022/05/09 01:41:39;;;;;;;15.35;5.18;;;;;;;6.80;79.62;102706.34;4860509;29;20066;-86
2022/05/09 01:44:05;;;;;;;19.45;5.55;;;;;;;6.51;80.40;102658.91;4861263;29;20105;-80
2022/05/09 01:46:31;;;;;;;11.93;4.80;;;;;;;6.66;79.79;102695.44;4863942;29;20057;-81
2022/05/09 01:51:46;;;;;;;14.20;5.05;;;;;;;6.68;79.87;102702.22;4806517;29;20058;-83
2022/05/09 01:54:13;;;;;;;12.25;4.93;;;;;;;6.63;80.20;102705.78;4806593;29;20104;-79
2022/05/09 01:56:40;;;;;;;15.38;5.18;;;;;;;6.54;80.53;102702.47;4806471;29;20051;-79
2022/05/09 01:59:08;;;;;;;12.23;5.57;;;;;;;6.50;81.18;102705.13;4806675;29;20396;-79
2022/05/09 02:01:41;;;;;;;16.40;5.32;;;;;;;6.22;81.15;102668.78;4806446;29;20548;-79
2022/05/09 02:04:06;;;;;;;14.35;5.13;;;;;;;6.40;81.42;102695.88;4806392;29;20043;-79
2022/05/09 02:06:32;;;;;;;13.38;5.65;;;;;;;6.08;81.19;102660.44;4806394;29;20049;-79
2022/05/09 02:08:57;;;;;;;15.30;5.10;;;;;;;6.27;81.88;102692.63;4806107;29;20065;-79
2022/05/09 02:11:28;;;;;;;12.13;4.72;;;;;;;6.28;82.21;102704.59;4806377;29;20175;-79
2022/05/09 02:13:53;;;;;;;14.65;4.95;;;;;;;6.23;82.53;102702.09;4806344;29;20035;-79
2022/05/09 02:16:19;;;;;;;13.18;5.38;;;;;;;5.98;82.68;102657.16;4806315;29;20204;-78
2022/05/09 02:18:44;;;;;;;11.45;4.85;;;;;;;5.93;82.58;102662.38;4806266;29;20062;-80
2022/05/09 02:21:09;;;;;;;14.95;5.25;;;;;;;5.92;82.57;102663.25;4806062;29;20031;-78
2022/05/09 02:23:36;;;;;;;18.15;5.85;;;;;;;6.20;83.46;102709.00;4805984;29;20411;-79
2022/05/09 02:26:04;;;;;;;14.27;5.70;;;;;;;6.02;83.14;102682.75;4806184;29;20033;-79
2022/05/09 02:28:30;;;;;;;15.00;5.22;;;;;;;6.12;83.18;102700.56;4827328;29;20081;-79
2022/05/09 02:30:55;;;;;;;13.60;4.57;;;;;;;6.13;82.80;102704.84;4846527;29;20105;-79
2022/05/09 02:33:21;;;;;;;13.27;5.25;;;;;;;5.70;83.38;102638.72;4862717;29;20413;-79
2022/05/09 02:35:47;;;;;;;14.30;5.65;;;;;;;5.89;83.12;102670.91;4863073;29;20116;-80
2022/05/09 02:38:12;;;;;;;13.52;5.85;;;;;;;5.97;83.64;102699.06;4862704;29;20026;-79
2022/05/09 02:40:37;;;;;;;12.40;5.10;;;;;;;5.73;83.45;102659.19;4862846;29;20048;-77
2022/05/09 02:43:03;;;;;;;15.20;5.63;;;;;;;5.51;83.54;102627.03;4862655;29;20043;-79
2022/05/09 02:45:29;;;;;;;16.35;5.07;;;;;;;5.87;84.21;102695.75;4845817;29;20470;-79
2022/05/09 02:47:56;;;;;;;11.70;5.15;;;;;;;5.88;84.60;102699.16;4862428;29;20061;-80
2022/05/09 02:50:23;;;;;;;15.30;5.40;;;;;;;5.73;84.39;102669.47;4845598;29;20029;-80
2022/05/09 02:52:49;;;;;;;13.13;5.57;;;;;;;5.83;83.59;102701.78;4862331;29;20030;-80
2022/05/09 02:55:15;;;;;;;11.27;5.63;;;;;;;5.77;83.96;102704.41;4862328;29;20042;-80
2022/05/09 02:57:41;;;;;;;14.05;5.22;;;;;;;5.61;84.11;102680.72;4862346;29;20034;-79
2022/05/09 03:00:16;;;;;;;15.80;5.45;;;;;;;5.65;84.47;102689.22;4862618;29;20030;-79
2022/05/09 03:02:41;;;;;;;14.27;5.38;;;;;;;5.70;84.42;102700.22;4862321;29;20033;-79
2022/05/09 03:05:07;;;;;;;13.98;5.13;;;;;;;5.62;84.70;102691.81;4862164;29;20037;-79
2022/05/09 03:07:36;;;;;;;17.17;5.60;;;;;;;5.61;85.12;102685.84;4862292;29;20029;-79
2022/05/09 03:10:02;;;;;;;15.75;5.35;;;;;;;5.12;84.77;102616.41;4862157;29;20029;-78
2022/05/09 03:12:28;;;;;;;14.07;5.28;;;;;;;5.39;85.44;102667.31;4862338;29;20392;-79
2022/05/09 03:14:53;;;;;;;12.18;5.20;;;;;;;5.08;85.15;102620.72;4862320;29;20029;-79
2022/05/09 03:17:18;;;;;;;14.63;5.32;;;;;;;5.07;85.20;102619.03;4862195;29;20477;-79
2022/05/09 03:19:44;;;;;;;15.00;5.28;;;;;;;5.15;85.46;102641.97;4862147;29;20040;-81
2022/05/09 03:22:10;;;;;;;14.90;6.72;;;;;;;5.46;86.12;102689.44;4862229;29;20434;-80
2022/05/09 03:24:36;;;;;;;13.38;5.57;;;;;;;5.06;85.76;102634.41;4845390;29;20021;-81
2022/05/09 03:27:03;;;;;;;14.23;5.63;;;;;;;5.29;85.94;102673.41;4861968;29;20044;-80
2022/05/09 03:29:30;;;;;;;12.85;5.85;;;;;;;4.89;85.96;102609.81;4862067;29;20057;-78
2022/05/09 03:31:56;;;;;;;12.85;5.25;;;;;;;4.98;85.95;102624.25;4861958;29;20034;-79
2022/05/09 03:34:21;;;;;;;15.27;5.88;;;;;;;4.85;86.12;102613.28;4861725;29;20060;-79
2022/05/09 03:36:47;;;;;;;16.65;5.90;;;;;;;4.86;86.45;102616.69;4861724;29;20037;-81
2022/05/09 03:39:12;;;;;;;11.93;5.78;;;;;;;5.18;86.42;102673.53;4844943;29;20068;-80
2022/05/09 03:41:38;;;;;;;14.02;5.55;;;;;;;5.01;86.40;102647.25;4861882;29;20038;-80
2022/05/09 03:44:04;;;;;;;15.27;6.45;;;;;;;4.10;86.68;102515.13;4911686;24;20049;-79
2022/05/09 03:46:30;;;;;;;12.88;5.40;;;;;;;4.21;86.81;102531.19;4861642;29;20038;-80
2022/05/09 03:48:57;;;;;;;12.65;5.25;;;;;;;4.78;86.96;102623.59;4861621;29;20105;-79
2022/05/09 03:52:16;;;;;;;15.45;6.18;;;;;;;5.09;86.86;102678.75;4844461;29;20550;-79
2022/05/09 03:54:50;;;;;;;15.15;6.07;;;;;;;4.00;86.72;102499.00;4860896;29;20584;-79
2022/05/09 03:57:16;;;;;;;15.77;5.63;;;;;;;4.55;87.02;102586.31;4861276;29;20363;-80
2022/05/09 03:59:47;;;;;;;18.70;6.53;;;;;;;4.99;87.23;102669.47;4861174;29;20062;-79
2022/05/09 04:02:12;;;;;;;14.18;6.70;;;;;;;4.77;87.40;102639.81;4861533;29;20057;-80
2022/05/09 04:04:37;;;;;;;16.77;6.20;;;;;;;4.86;87.64;102645.69;4861318;29;20538;-80
2022/05/09 04:07:03;;;;;;;14.68;6.65;;;;;;;5.06;87.32;102683.91;4860691;29;20030;-80
2022/05/09 04:09:28;;;;;;;15.55;6.65;;;;;;;5.05;87.02;102682.22;4860903;29;20029;-80
2022/05/09 04:11:54;;;;;;;20.85;6.75;;;;;;;4.75;87.28;102624.50;4861119;29;20394;-82
2022/05/09 04:16:49;;;;;;;16.88;6.57;;;;;;;5.13;87.27;102677.84;4949810;24;20049;-80
2022/05/09 04:17:04;;;;;;;16.10;6.03;;;;;;;5.06;87.12;102672.81;4861002;29;20044;-80
2022/05/09 04:19:30;;;;;;;15.05;6.53;;;;;;;5.22;87.08;102678.63;4861363;29;20041;-80
2022/05/09 04:21:57;;;;;;;16.63;7.18;;;;;;;5.23;87.01;102672.63;4861125;29;20037;-80
2022/05/09 04:24:22;;;;;;;14.85;6.18;;;;;;;4.87;87.04;102603.88;4861181;29;20029;-79
2022/05/09 04:26:47;;;;;;;12.90;6.07;;;;;;;5.28;86.91;102670.84;4860629;29;20030;-81
2022/05/09 04:29:13;;;;;;;13.88;6.82;;;;;;;5.12;87.38;102637.75;4861044;29;20033;-80
2022/05/09 04:31:38;;;;;;;14.85;6.68;;;;;;;5.21;86.91;102638.50;4861325;29;20029;-80
2022/05/09 04:34:04;;;;;;;18.10;7.63;;;;;;;5.21;87.39;102631.69;4861279;29;20052;-79
2022/05/09 04:36:30;;;;;;;13.50;6.93;;;;;;;5.26;87.07;102634.16;4844078;29;20048;-86
2022/05/09 04:38:55;;;;;;;17.15;7.55;;;;;;;5.13;87.08;102595.06;4843885;29;20045;-82
2022/05/09 04:41:22;;;;;;;15.55;6.90;;;;;;;5.56;86.78;102667.09;4860861;29;20506;-81
2022/05/09 04:43:48;;;;;;;15.07;6.43;;;;;;;5.68;86.69;102660.97;4843968;29;20077;-79
2022/05/09 04:46:14;;;;;;;15.27;6.40;;;;;;;5.35;86.44;102596.47;4844318;29;20788;-79
2022/05/09 04:48:41;;;;;;;14.38;6.18;;;;;;;5.52;86.73;102618.47;4860828;29;20033;-79
2022/05/09 04:51:15;;;;;;;16.00;6.82;;;;;;;5.83;86.77;102639.41;4860394;29;20036;-81
2022/05/09 04:53:41;;;;;;;17.17;6.80;;;;;;;5.99;86.54;102662.25;4860871;29;20041;-80
2022/05/09 04:56:06;;;;;;;20.13;7.53;;;;;;;6.12;86.25;102659.53;4860536;29;20026;-79
2022/05/09 04:58:32;;;;;;;18.05;7.07;;;;;;;5.99;86.12;102620.38;4860511;29;20029;-79
2022/05/09 05:00:58;;;;;;;20.10;7.68;;;;;;;6.48;86.34;102624.72;4860932;29;20025;-80
2022/05/09 05:03:24;;;;;;;18.80;7.18;;;;;;;7.87;82.06;102642.53;4860650;29;20414;-80
2022/05/09 05:05:53;;;;;;;15.88;6.47;;;;;;;9.24;76.16;102627.88;4860735;29;20033;-81
2022/05/09 05:08:21;;;;;;;16.35;6.70;;;;;;;10.92;71.57;102636.28;4861128;29;20054;-81
2022/05/09 05:10:52;;;;;;;14.18;5.85;;;;;;;11.60;65.97;102591.50;4860529;29;20033;-79
2022/05/09 05:13:18;;;;;;;13.10;5.38;;;;;;;12.57;63.00;102596.97;4860338;29;20050;-81
2022/05/09 05:15:44;;;;;;;17.90;6.82;;;;;;;13.89;59.75;102620.38;4860686;29;20553;-82
2022/05/09 05:18:09;;;;;;;13.07;5.75;;;;;;;14.86;56.00;102629.41;4860387;29;20085;-79
2022/05/09 05:20:35;;;;;;;16.52;5.30;;;;;;;15.65;54.38;102627.75;4863792;29;20047;-80
2022/05/09 05:23:01;;;;;;;13.88;5.22;;;;;;;16.03;51.91;102615.16;4847950;29;20041;-88
2022/05/09 05:25:28;;;;;;;13.40;5.25;;;;;;;16.91;50.13;102639.50;4848525;29;20025;-85
2022/05/09 05:27:57;;;;;;;14.30;5.65;;;;;;;16.96;48.02;102603.53;4863813;29;20045;-83
2022/05/09 05:30:23;;;;;;;15.68;5.72;;;;;;;17.42;46.65;102600.66;4848386;29;20489;-83
2022/05/09 05:32:49;;;;;;;13.70;5.28;;;;;;;18.03;44.96;102633.31;4864668;29;20033;-81
2022/05/09 05:35:19;;;;;;;13.77;5.68;;;;;;;18.28;44.63;102594.09;4864159;29;20385;-81
2022/05/09 05:37:44;;;;;;;12.38;5.43;;;;;;;18.94;43.16;102633.28;4863771;29;20041;-80
2022/05/09 05:40:19;;;;;;;16.15;6.43;;;;;;;19.03;43.48;102636.09;4870816;24;20041;-78
2022/05/09 05:42:45;;;;;;;13.55;5.43;;;;;;;19.64;40.42;102633.53;4844704;29;20034;-81
2022/05/09 05:45:13;;;;;;;12.30;5.25;;;;;;;19.58;40.43;102576.34;4846471;29;20475;-89
2022/05/09 05:47:38;;;;;;;16.80;5.70;;;;;;;19.40;39.88;102541.78;4846728;29;20075;-84
2022/05/09 05:50:07;;;;;;;16.52;5.90;;;;;;;20.06;39.98;102634.78;4845972;29;20026;-84
2022/05/09 05:52:32;;;;;;;12.40;5.68;;;;;;;20.61;38.30;102596.50;4860153;29;20545;-79
2022/05/09 05:54:58;;;;;;;13.43;5.32;;;;;;;21.28;36.88;102630.63;4864035;29;20096;-79
2022/05/09 05:57:26;;;;;;;11.98;5.13;;;;;;;21.14;37.02;102615.94;4862982;29;20022;-80
2022/05/09 05:59:56;;;;;;;12.40;5.82;;;;;;;21.52;36.60;102634.84;4863487;29;20034;-77
2022/05/09 06:02:23;;;;;;;13.93;6.32;;;;;;;21.17;36.91;102620.94;4863266;29;20165;-78
2022/05/09 06:04:50;;;;;;;12.88;5.90;;;;;;;21.51;35.69;102620.03;4863229;29;20065;-81
2022/05/09 06:07:16;;;;;;;13.57;6.05;;;;;;;21.44;35.42;102615.31;4863542;29;20377;-82
2022/05/09 06:09:44;;;;;;;14.82;5.47;;;;;;;21.66;35.26;102627.53;4863322;29;20030;-80
2022/05/09 06:12:11;;;;;;;14.55;6.07;;;;;;;22.00;34.87;102628.19;4862881;29;20378;-82
2022/05/09 06:14:37;;;;;;;14.13;5.82;;;;;;;22.22;34.51;102563.28;4863285;29;20039;-76
2022/05/09 06:17:03;;;;;;;18.80;6.60;;;;;;;22.51;34.94;102624.81;4862964;29;20033;-75
2022/05/09 06:19:28;;;;;;;13.63;6.60;;;;;;;22.96;33.11;102626.28;4863388;29;20033;-79
2022/05/09 06:21:54;;;;;;;14.10;6.20;;;;;;;22.97;33.63;102573.44;4863045;29;20493;-76
2022/05/09 06:24:20;;;;;;;18.48;6.50;;;;;;;23.23;32.36;102567.69;4862949;29;20441;-88
2022/05/09 06:26:45;;;;;;;14.68;6.50;;;;;;;23.84;32.51;102622.81;4862697;29;20116;-78
2022/05/09 06:29:11;;;;;;;14.30;6.50;;;;;;;24.49;30.43;102626.50;4862560;29;20036;-79
2022/05/09 06:31:37;;;;;;;14.23;6.25;;;;;;;25.07;29.76;102627.09;4862295;29;20386;-79
2022/05/09 06:34:04;;;;;;;15.57;6.78;;;;;;;24.45;29.99;102618.00;4845957;29;20112;-81
2022/05/09 06:36:38;;;;;;;16.88;6.38;;;;;;;24.27;30.54;102537.84;4862462;29;20031;-85
2022/05/09 06:39:05;;;;;;;13.52;6.20;;;;;;;24.77;29.48;102622.03;4862368;29;20398;-83
2022/05/09 06:41:31;;;;;;;14.73;6.38;;;;;;;24.66;30.08;102627.50;4862181;29;20050;-72
2022/05/09 06:43:56;;;;;;;13.00;6.53;;;;;;;24.83;29.69;102593.22;4862060;29;20041;-77
2022/05/09 06:46:22;;;;;;;15.32;6.55;;;;;;;25.43;28.32;102617.38;5004050;24;20069;-79
2022/05/09 06:48:53;;;;;;;13.23;5.88;;;;;;;24.96;29.62;102478.41;4843786;24;20050;-79
2022/05/09 06:51:31;;;;;;;14.52;6.28;;;;;;;26.13;29.24;102612.16;4844017;29;20026;-80
2022/05/09 06:53:56;;;;;;;17.30;5.97;;;;;;;25.54;27.28;102501.72;4844023;29;20065;-79
2022/05/09 06:56:22;;;;;;;15.70;5.97;;;;;;;25.71;27.49;102537.94;4844088;29;20479;-80
2022/05/09 06:58:47;;;;;;;12.10;6.05;;;;;;;26.23;26.85;102612.06;4841342;29;20046;-79
2022/05/09 07:01:18;;;;;;;17.30;6.43;;;;;;;26.19;27.03;102619.50;4841982;29;20042;-78
2022/05/09 07:03:50;;;;;;;;;;;;;;;26.70;27.96;102609.84;4842348;29;20148;-78
2022/05/09 07:06:16;;;;;;;13.75;6.13;;;;;;;26.35;28.31;102600.25;4842065;29;19916;-78
2022/05/09 07:08:42;;;;;;;14.25;6.70;;;;;;;25.42;27.44;102461.47;4849568;24;20529;-78
2022/05/09 07:11:08;;;;;;;13.15;6.03;;;;;;;26.25;26.57;102536.78;4843773;29;20037;-78
2022/05/09 07:13:34;;;;;;;14.90;5.63;;;;;;;26.83;26.30;102612.06;4843837;29;20094;-78
2022/05/09 07:16:00;;;;;;;15.75;5.85;;;;;;;26.64;25.83;102543.41;4843837;29;20462;-78
2022/05/09 07:18:27;;;;;;;14.18;6.38;;;;;;;26.61;26.19;102549.88;4843658;29;20038;-78
2022/05/09 07:20:53;;;;;;;16.88;6.47;;;;;;;27.05;26.16;102592.94;4843782;29;20082;-77
2022/05/09 07:23:18;;;;;;;18.70;6.45;;;;;;;26.04;26.63;102594.56;4843663;29;20420;-79
2022/05/09 07:25:44;;;;;;;19.27;6.78;;;;;;;23.73;30.23;102573.69;4843385;29;20047;-78
2022/05/09 07:28:11;;;;;;;14.75;7.00;;;;;;;22.29;32.29;102588.13;4843401;29;20033;-77
2022/05/09 07:30:38;;;;;;;17.40;7.10;;;;;;;20.87;34.62;102587.44;4843249;29;20056;-79
2022/05/09 07:33:04;;;;;;;16.60;6.25;;;;;;;19.83;36.75;102598.94;4843370;29;20070;-76
2022/05/09 07:35:29;;;;;;;16.80;7.10;;;;;;;18.96;39.72;102597.34;4843462;29;20053;-79
2022/05/09 07:37:55;;;;;;;17.30;6.63;;;;;;;18.44;40.38;102614.00;4843198;29;20040;-76
2022/05/09 07:40:20;;;;;;;13.40;6.82;;;;;;;18.01;41.82;102602.03;4843020;29;20022;-79
2022/05/09 07:42:47;;;;;;;15.45;6.75;;;;;;;17.68;41.84;102598.97;4842784;29;20030;-79
2022/05/09 07:45:16;;;;;;;17.02;6.90;;;;;;;17.32;43.88;102576.91;4843325;29;20040;-78
2022/05/09 07:47:41;;;;;;;20.05;7.97;;;;;;;17.38;43.62;102605.22;4843196;29;20109;-78
2022/05/09 07:50:08;;;;;;;17.55;7.28;;;;;;;17.22;43.45;102620.22;4843261;29;20112;-78
2022/05/09 07:52:34;;;;;;;16.42;6.90;;;;;;;16.98;44.46;102606.88;4842973;29;20030;-79
2022/05/09 07:55:02;;;;;;;15.00;6.93;;;;;;;16.77;45.32;102582.97;4826603;29;20042;-81
2022/05/09 07:57:28;;;;;;;18.90;7.32;;;;;;;16.91;45.29;102616.88;4843592;29;20033;-75
2022/05/09 07:59:53;;;;;;;14.43;6.38;;;;;;;16.92;44.99;102615.94;4861404;29;20037;-75
2022/05/09 08:02:19;;;;;;;15.98;6.38;;;;;;;16.93;46.94;102595.91;4861476;29;20073;-76
2022/05/09 08:04:44;;;;;;;17.70;7.10;;;;;;;16.89;46.07;102595.25;4861496;29;20113;-77
2022/05/09 08:07:10;;;;;;;16.70;7.28;;;;;;;16.99;45.55;102615.56;4861045;29;20037;-77
2022/05/09 08:09:35;;;;;;;22.02;7.18;;;;;;;16.94;45.14;102586.31;4861074;29;20132;-76
2022/05/09 08:12:03;;;;;;;18.55;6.75;;;;;;;17.02;44.65;102612.78;4861507;29;20034;-76
2022/05/09 08:14:28;;;;;;;14.77;6.97;;;;;;;16.89;45.15;102600.47;4860945;29;20040;-80
2022/05/09 08:16:57;;;;;;;14.52;6.75;;;;;;;16.58;45.03;102572.78;4844459;29;20038;-78
2022/05/09 08:19:23;;;;;;;18.63;6.90;;;;;;;16.74;45.56;102598.81;4843983;29;20029;-76
2022/05/09 08:21:50;;;;;;;15.45;6.90;;;;;;;16.81;48.02;102597.50;4844757;29;20398;-77
2022/05/09 08:24:16;;;;;;;19.48;7.35;;;;;;;17.01;45.94;102616.28;4844583;29;20523;-74
2022/05/09 08:26:42;;;;;;;17.45;7.03;;;;;;;17.02;47.83;102616.22;4860313;29;20378;-74
2022/05/09 08:29:07;;;;;;;14.98;6.43;;;;;;;17.10;46.81;102610.50;4861124;29;20026;-79
2022/05/09 08:31:33;;;;;;;20.58;7.35;;;;;;;17.23;47.73;102610.59;4860803;29;20044;-76
2022/05/09 08:33:59;;;;;;;20.35;6.72;;;;;;;17.29;46.25;102616.25;4860967;29;20536;-77
2022/05/09 08:39:09;;;;;;;15.20;6.57;;;;;;;17.23;44.63;102611.44;4861153;29;20081;-76
2022/05/09 08:42:06;;;;;;;16.27;6.25;;;;;;;17.33;45.98;102617.75;4861024;29;20073;-77
2022/05/09 08:44:51;;;;;;;12.15;6.07;;;;;;;17.46;45.17;102609.97;4842874;29;20494;-75
2022/05/09 08:47:30;;;;;;;16.27;7.50;;;;;;;17.45;44.63;102609.13;4842459;29;20092;-77
2022/05/09 08:50:14;;;;;;;15.55;6.20;;;;;;;17.39;44.25;102600.84;4842275;29;20509;-77
2022/05/09 08:52:51;;;;;;;13.40;6.35;;;;;;;17.40;45.20;102606.00;4842684;29;20036;-79
2022/05/09 08:55:23;;;;;;;15.55;5.85;;;;;;;17.59;46.94;102607.41;4846337;29;20030;-78
2022/05/09 08:58:02;;;;;;;13.48;6.22;;;;;;;17.72;46.42;102605.72;4829680;29;20041;-77
2022/05/09 09:00:29;;;;;;;14.25;5.97;;;;;;;17.74;47.65;102586.38;4845992;29;20029;-78
2022/05/09 09:03:06;;;;;;;16.98;7.05;;;;;;;17.85;44.30;102600.53;4829360;29;20025;-81
2022/05/09 09:05:35;;;;;;;17.48;6.82;;;;;;;17.73;45.10;102596.94;4829528;29;20414;-79
2022/05/09 09:08:06;;;;;;;16.75;7.55;;;;;;;17.76;45.34;102588.91;4845767;29;20046;-82
2022/05/09 09:10:48;;;;;;;12.95;6.22;;;;;;;17.57;44.14;102546.59;4845817;29;20494;-83
2022/05/09 09:13:25;;;;;;;13.80;7.35;;;;;;;17.69;43.79;102569.28;4860459;24;20507;-83
2022/05/09 09:16:03;;;;;;;17.02;7.60;;;;;;;17.68;44.17;102571.06;4865481;24;20054;-83
2022/05/09 09:19:04;;;;;;;13.13;6.72;;;;;;;17.65;44.89;102560.00;4845734;29;20029;-82
2022/05/09 09:21:49;;;;;;;17.63;6.55;;;;;;;17.93;48.78;102562.50;4845783;29;20034;-82
2022/05/09 09:24:35;;;;;;;15.15;5.55;;;;;;;17.78;45.16;102538.19;4845869;29;20118;-83
2022/05/09 09:27:40;;;;;;;13.40;6.32;;;;;;;18.20;43.33;102572.91;4846003;29;20398;-79
2022/05/09 09:30:13;;;;;;;13.98;5.70;;;;;;;18.51;47.67;102583.88;4845764;29;20026;-78
2022/05/09 09:32:45;;;;;;;15.32;6.93;;;;;;;18.45;42.04;102582.50;4828656;29;20548;-80
2022/05/09 09:35:10;;;;;;;;;;;;;;;18.42;44.17;102581.91;4846182;29;20022;-80
2022/05/09 09:37:37;;;;;;;13.55;6.85;;;;;;;18.17;41.96;102548.72;4847321;29;19976;-80
2022/05/09 09:40:05;;;;;;;10.15;5.03;;;;;;;18.41;44.68;102572.38;4845882;29;20474;-81
2022/05/09 09:42:30;;;;;;;15.73;6.60;;;;;;;17.98;43.27;102499.44;4829736;29;20044;-83
2022/05/09 09:44:58;;;;;;;15.20;6.38;;;;;;;18.35;43.82;102544.84;4845571;29;20097;-81
2022/05/09 09:47:27;;;;;;;19.35;5.82;;;;;;;18.56;41.98;102572.13;4846034;29;20026;-87
2022/05/09 09:50:29;;;;;;;14.18;5.50;;;;;;;18.70;43.80;102562.56;4845746;29;20034;-82
2022/05/09 09:52:57;;;;;;;13.27;6.22;;;;;;;18.80;41.30;102568.81;4846267;29;20101;-80
2022/05/09 09:55:31;;;;;;;12.20;5.97;;;;;;;18.95;45.18;102559.84;4846215;29;20029;-83
2022/05/09 09:57:59;;;;;;;15.38;6.10;;;;;;;18.75;42.89;102524.63;4850617;29;20034;-82
2022/05/09 10:00:30;;;;;;;12.90;5.45;;;;;;;18.96;44.41;102558.91;4851122;29;20026;-81
2022/05/09 10:03:15;;;;;;;14.88;6.55;;;;;;;18.94;43.38;102546.88;4848703;29;20044;-87
2022/05/09 10:05:43;;;;;;;15.48;6.65;;;;;;;18.83;41.59;102538.00;4844812;29;20033;-83
2022/05/09 10:08:21;;;;;;;15.55;6.70;;;;;;;18.82;42.18;102540.75;4845229;29;20050;-83
2022/05/09 10:10:59;;;;;;;14.15;6.43;;;;;;;18.70;43.52;102515.44;4844993;29;20101;-82
2022/05/09 10:13:52;;;;;;;14.48;6.07;;;;;;;18.97;42.79;102542.25;4845153;29;20026;-86
2022/05/09 10:16:33;;;;;;;12.63;5.72;;;;;;;18.74;41.53;102514.28;4844201;29;20045;-82
2022/05/09 10:19:02;;;;;;;15.15;5.57;;;;;;;19.00;42.55;102528.97;4844603;29;20386;-83
2022/05/09 10:27:28;;;;;;;10.93;6.00;;;;;;;19.44;41.55;102520.47;4845798;29;20174;-81
2022/05/09 10:29:56;;;;;;;;;;;;;;;19.46;43.12;102520.38;4846803;29;20550;-86
2022/05/09 10:32:48;;;;;;;12.50;5.32;;;;;;;19.47;44.71;102520.28;4862954;29;19951;-84
2022/05/09 10:35:23;;;;;;;9.85;4.63;;;;;;;19.49;45.33;102515.75;4862810;29;20473;-82
2022/05/09 10:37:58;;;;;;;20.92;6.53;;;;;;;19.43;40.72;102503.09;4863103;29;20088;-86
2022/05/09 10:40:51;;;;;;;13.85;5.40;;;;;;;19.64;42.61;102510.34;4846393;29;20026;-87
2022/05/09 10:43:28;;;;;;;14.38;6.53;;;;;;;19.75;41.09;102519.06;4852744;29;20067;-87
2022/05/09 10:45:53;;;;;;;8.68;4.57;;;;;;;19.77;39.79;102506.69;4844511;29;20030;-82
2022/05/09 10:48:21;;;;;;;9.98;4.47;;;;;;;19.84;38.72;102524.56;4843921;29;20566;-80
2022/05/09 10:51:12;;;;;;;14.48;4.80;;;;;;;19.82;36.31;102521.22;4844490;29;20053;-79
2022/05/09 10:53:53;;;;;;;13.60;5.13;;;;;;;19.81;37.92;102520.41;4834168;29;20129;-79
2022/05/09 10:56:31;;;;;;;16.55;5.90;;;;;;;19.87;38.38;102512.09;4843967;29;20121;-80
2022/05/09 10:59:02;;;;;;;13.70;5.65;;;;;;;19.86;38.40;102501.69;4844266;29;20033;-86
2022/05/09 11:01:30;;;;;;;12.85;5.70;;;;;;;19.90;36.98;102503.16;4844422;29;20034;-86
2022/05/09 11:03:56;;;;;;;12.00;5.35;;;;;;;19.82;37.83;102492.41;4843983;29;20034;-83
2022/05/09 11:06:38;;;;;;;12.23;5.70;;;;;;;19.90;40.20;102496.13;4827219;29;20054;-85
2022/05/09 11:09:34;;;;;;;12.77;5.32;;;;;;;20.03;39.62;102488.13;4827435;29;20500;-86
2022/05/09 11:12:28;;;;;;;10.30;3.72;;;;;;;20.15;38.34;102495.06;4843926;29;20483;-89
2022/05/09 11:15:02;;;;;;;8.38;3.17;;;;;;;20.12;40.53;102478.72;4844441;29;20098;-84
2022/05/09 11:17:31;;;;;;;8.00;3.47;;;;;;;20.09;39.21;102484.22;4842492;29;20077;-83
2022/05/09 11:20:05;;;;;;;13.38;4.70;;;;;;;20.20;38.58;102477.19;4843376;29;20214;-83
2022/05/09 11:22:47;;;;;;;13.40;4.82;;;;;;;19.96;38.60;102437.09;4843760;29;20041;-82
2022/05/09 11:25:35;;;;;;;13.25;4.68;;;;;;;20.41;39.20;102474.66;4843454;29;20067;-87
2022/05/09 11:28:39;;;;;;;12.23;5.13;;;;;;;20.46;39.12;102442.88;4843865;29;20041;-86
2022/05/09 11:31:07;;;;;;;12.40;4.68;;;;;;;20.80;39.37;102465.44;4769274;30;20039;-86
2022/05/09 11:33:42;;;;;;;12.52;5.38;;;;;;;20.80;38.27;102457.56;4768917;30;20073;-90
2022/05/09 11:36:29;;;;;;;10.63;5.30;;;;;;;20.86;38.75;102457.09;4769242;30;20563;-85
2022/05/09 11:39:03;;;;;;;11.93;5.82;;;;;;;20.74;37.62;102449.34;4768946;30;20063;-84
2022/05/09 11:41:36;;;;;;;13.57;5.72;;;;;;;20.48;37.44;102427.81;4769109;30;20044;-86
2022/05/09 11:44:15;;;;;;;13.43;6.32;;;;;;;20.76;38.93;102456.16;4769003;30;20185;-84
2022/05/09 11:46:46;;;;;;;10.77;6.07;;;;;;;20.79;38.54;102448.03;4769372;30;20036;-88
2022/05/09 11:49:49;;;;;;;14.00;6.07;;;;;;;20.84;39.48;102450.28;4769258;30;20067;-86
2022/05/09 11:52:30;;;;;;;13.18;5.55;;;;;;;20.84;39.52;102424.88;4754108;30;20044;-86
2022/05/09 11:55:05;;;;;;;18.20;6.30;;;;;;;20.92;38.79;102446.06;4768912;30;20131;-86
2022/05/09 11:57:34;;;;;;;11.82;5.90;;;;;;;20.81;39.40;102408.53;4768929;30;20448;-86
2022/05/09 12:00:06;;;;;;;11.15;6.32;;;;;;;20.89;37.58;102421.88;4768815;30;20531;-88
2022/05/09 12:02:54;;;;;;;12.60;7.20;;;;;;;20.91;36.90;102436.53;4754174;30;20044;-87
2022/05/09 12:05:25;;;;;;;11.45;5.72;;;;;;;20.81;37.75;102443.47;4768484;30;20096;-88
2022/05/09 12:07:55;;;;;;;11.88;7.38;;;;;;;20.75;37.65;102437.91;4806383;29;20395;-86
2022/05/09 12:10:28;;;;;;;12.63;6.03;;;;;;;20.79;39.14;102411.28;4843054;29;20078;-87
2022/05/09 12:13:04;;;;;;;15.25;6.55;;;;;;;20.96;40.21;102407.28;4843078;29;20029;-76
2022/05/09 12:15:29;;;;;;;10.70;6.70;;;;;;;21.07;38.03;102424.78;4826520;29;20026;-80